Terminal Aerodrome Forecast
Issued by NWS

Home | Current Version | Previous Version | Text Only | Print | Product List | Glossary On
Versions: 1 2 3 4 5 6 7 8 9 10 11 12 13 14 15
000
FTUS43 KOAX 051722
TAFSNY
TAF
KSNY 051722Z 0518/0618 10012KT 5SM BR OVC006
     FM052300 10015G22KT 3SM -SHRA BR OVC011
     FM060400 13012KT 2SM -RA BR OVC008=

USA.gov is the U.S. government's official web portal to all federal, state and local government web resources and services.